Time;durP1;ratioP1;P1;durP2;ratioP2;P2;SDS_P1;SDS_P2;PMS_P1;PMS_P2;Temp;Humidity;BMP_temperature;BMP_pressure;BME280_temperature;BME280_humidity;BME280_pressure;Samples;Min_cycle;Max_cycle;Signal;HPM_P1;HPM_P2
2022/04/19 00:01:59;;;;;;;2.43;2.33;;;;;;;6.95;100.00;99120.97;5110922;28;20559;-66
2022/04/19 00:04:25;;;;;;;2.17;2.07;;;;;;;6.97;100.00;99114.94;5110942;28;20209;-65
2022/04/19 00:06:52;;;;;;;2.27;2.13;;;;;;;6.94;100.00;99119.28;5110363;28;20214;-65
2022/04/19 00:09:19;;;;;;;2.47;2.37;;;;;;;6.95;100.00;99115.84;5108951;28;20199;-65
2022/04/19 00:11:46;;;;;;;4.33;2.33;;;;;;;6.91;100.00;99107.44;5110473;28;20198;-65
2022/04/19 00:14:13;;;;;;;2.30;2.20;;;;;;;6.98;100.00;99120.91;5110610;28;20293;-66
2022/04/19 00:16:41;;;;;;;2.37;2.27;;;;;;;6.95;100.00;99115.84;5109295;28;20754;-65
2022/04/19 00:19:08;;;;;;;2.60;2.40;;;;;;;6.93;100.00;99117.59;5112017;28;20198;-65
2022/04/19 00:21:35;;;;;;;2.90;2.80;;;;;;;6.91;100.00;99114.22;5115011;28;20194;-66
2022/04/19 00:24:02;;;;;;;2.20;2.10;;;;;;;6.85;100.00;99115.19;5115094;28;20195;-66
2022/04/19 00:26:29;;;;;;;2.40;2.30;;;;;;;6.85;100.00;99100.72;5114375;28;20347;-65
2022/04/19 00:28:55;;;;;;;2.73;2.63;;;;;;;6.81;100.00;99104.22;5114103;28;20738;-66
2022/04/19 00:31:22;;;;;;;2.17;2.07;;;;;;;6.83;100.00;99114.38;5114925;28;20199;-66
2022/04/19 00:33:51;;;;;;;2.30;2.20;;;;;;;6.79;100.00;99105.94;5114374;28;20285;-66
2022/04/19 00:36:18;;;;;;;2.20;2.10;;;;;;;6.78;100.00;99103.44;5114772;28;20201;-65
2022/04/19 00:38:45;;;;;;;2.37;2.27;;;;;;;6.75;100.00;99109.41;5113883;28;20226;-65
2022/04/19 00:41:12;;;;;;;2.53;2.43;;;;;;;6.73;100.00;99106.06;5114434;28;20278;-65
2022/04/19 00:43:40;;;;;;;2.47;2.37;;;;;;;6.75;100.00;99106.06;5111773;28;20209;-65
2022/04/19 00:46:07;;;;;;;2.57;2.47;;;;;;;6.71;100.00;99101.88;5112424;28;20210;-65
2022/04/19 00:48:33;;;;;;;2.53;2.43;;;;;;;6.74;100.00;99101.81;5114127;28;20222;-65
2022/04/19 00:51:02;;;;;;;2.40;2.30;;;;;;;6.74;100.00;99095.03;5113865;28;20653;-66
2022/04/19 00:53:29;;;;;;;4.30;1.93;;;;;;;6.74;100.00;99099.28;5114479;28;20640;-65
2022/04/19 00:55:57;;;;;;;2.60;2.50;;;;;;;6.66;100.00;99094.31;5113861;28;20206;-65
2022/04/19 00:58:24;;;;;;;2.50;2.40;;;;;;;6.74;100.00;99104.38;5113983;28;20187;-66
2022/04/19 01:00:51;;;;;;;2.33;2.23;;;;;;;6.73;100.00;99095.03;5111943;28;20202;-65
2022/04/19 01:03:18;;;;;;;2.00;2.00;;;;;;;6.75;100.00;99098.41;5110692;28;20198;-65
2022/04/19 01:05:46;;;;;;;2.10;2.00;;;;;;;6.60;100.00;99073.22;5112138;28;20366;-66
2022/04/19 01:08:16;;;;;;;4.03;2.67;;;;;;;6.65;100.00;99079.09;5110649;28;20250;-65
2022/04/19 01:10:45;;;;;;;2.30;2.20;;;;;;;6.72;100.00;99083.19;5111743;28;20191;-69
2022/04/19 01:13:17;;;;;;;2.43;2.33;;;;;;;6.72;100.00;99090.84;5111404;28;20199;-69
2022/04/19 01:15:46;;;;;;;2.83;2.67;;;;;;;6.73;100.00;99098.44;5113527;28;20199;-69
2022/04/19 01:18:14;;;;;;;2.40;2.30;;;;;;;6.75;100.00;99093.31;5113610;28;20555;-69
2022/04/19 01:20:42;;;;;;;2.30;2.20;;;;;;;6.72;100.00;99094.19;5114130;28;20204;-69
2022/04/19 01:23:10;;;;;;;2.73;2.63;;;;;;;6.75;100.00;99093.31;5113380;28;20670;-69
2022/04/19 01:25:37;;;;;;;2.20;2.10;;;;;;;6.76;100.00;99094.97;5111146;28;20225;-69
2022/04/19 01:28:05;;;;;;;2.27;2.17;;;;;;;6.74;100.00;99096.72;5113567;28;20306;-69
2022/04/19 01:30:32;;;;;;;2.17;2.07;;;;;;;6.73;100.00;99084.84;5112732;28;20199;-69
2022/04/19 01:32:59;;;;;;;2.47;2.37;;;;;;;6.71;100.00;99084.06;5113584;28;20252;-69
2022/04/19 01:35:27;;;;;;;2.20;2.10;;;;;;;6.70;100.00;99090.00;5113030;28;20217;-69
2022/04/19 01:37:54;;;;;;;2.17;1.97;;;;;;;6.71;100.00;99086.59;5113514;28;20246;-69
2022/04/19 01:40:22;;;;;;;2.37;2.27;;;;;;;6.69;100.00;99089.16;5112854;28;20237;-69
2022/04/19 01:42:52;;;;;;;2.10;2.00;;;;;;;6.68;100.00;99087.50;5113628;28;20627;-69
2022/04/19 01:45:23;;;;;;;2.70;2.60;;;;;;;6.69;100.00;99083.22;5112856;28;20199;-69
2022/04/19 01:47:51;;;;;;;2.17;2.07;;;;;;;6.70;100.00;99079.81;5113404;28;20206;-70
2022/04/19 01:50:19;;;;;;;2.70;2.60;;;;;;;6.64;100.00;99067.22;5113163;28;20633;-69
2022/04/19 01:52:47;;;;;;;2.60;2.50;;;;;;;6.64;100.00;99085.03;5113694;28;20706;-70
2022/04/19 01:55:16;;;;;;;1.83;1.83;;;;;;;6.43;100.00;99075.28;5109620;28;20203;-69
2022/04/19 01:57:45;;;;;;;2.40;2.30;;;;;;;6.41;100.00;99074.44;5110246;28;20187;-69
2022/04/19 02:00:13;;;;;;;2.33;2.23;;;;;;;6.28;100.00;99056.88;5112895;28;20198;-69
2022/04/19 02:02:43;;;;;;;2.43;2.33;;;;;;;6.45;100.00;99076.06;5106959;28;20285;-69
2022/04/19 02:05:11;;;;;;;2.07;2.00;;;;;;;6.48;100.00;99068.38;5111933;28;20628;-69
2022/04/19 02:07:42;;;;;;;1.83;1.70;;;;;;;6.51;100.00;99070.88;5112691;28;20226;-69
2022/04/19 02:10:11;;;;;;;1.93;1.93;;;;;;;6.54;100.00;99065.72;5112654;28;20195;-69
2022/04/19 02:12:39;;;;;;;1.60;1.60;;;;;;;6.52;100.00;99057.28;5110561;28;20221;-69
2022/04/19 02:15:09;;;;;;;2.10;2.00;;;;;;;6.48;100.00;99050.56;5113220;28;20677;-69
2022/04/19 02:17:44;;;;;;;3.03;2.83;;;;;;;6.57;100.00;99068.19;5112485;28;20749;-69
2022/04/19 02:20:13;;;;;;;3.53;2.43;;;;;;;6.52;100.00;99059.81;5112628;28;20243;-69
2022/04/19 02:22:40;;;;;;;2.23;2.13;;;;;;;6.57;100.00;99068.19;5111410;28;20210;-69
2022/04/19 02:25:08;;;;;;;2.13;2.03;;;;;;;6.57;100.00;99069.03;5112435;28;20221;-69
2022/04/19 02:27:37;;;;;;;1.33;1.33;;;;;;;6.59;100.00;99069.03;5112125;28;20215;-69
2022/04/19 02:30:06;;;;;;;2.37;2.27;;;;;;;6.60;100.00;99068.13;5112669;28;20199;-69
2022/04/19 02:32:34;;;;;;;2.10;2.00;;;;;;;6.61;100.00;99065.56;5112365;28;20608;-69
2022/04/19 02:35:02;;;;;;;5.20;2.20;;;;;;;6.60;100.00;99068.13;5109577;28;20195;-70
2022/04/19 02:37:29;;;;;;;2.13;2.03;;;;;;;6.61;100.00;99069.81;5112293;28;20191;-69
2022/04/19 02:39:56;;;;;;;2.00;2.00;;;;;;;6.59;100.00;99072.38;5111922;28;20787;-69
2022/04/19 02:42:23;;;;;;;1.63;1.57;;;;;;;6.62;100.00;99071.50;5112354;28;20221;-69
2022/04/19 02:44:50;;;;;;;2.13;2.03;;;;;;;6.63;100.00;99062.97;5111636;28;20285;-69
2022/04/19 02:47:18;;;;;;;2.23;2.13;;;;;;;6.64;100.00;99059.56;5111962;28;20608;-70
2022/04/19 02:49:46;;;;;;;3.10;1.97;;;;;;;6.63;100.00;99062.97;5111849;28;20293;-69
2022/04/19 02:52:13;;;;;;;4.30;2.57;;;;;;;6.59;100.00;99071.56;5111951;28;20206;-69
2022/04/19 02:54:40;;;;;;;2.63;2.53;;;;;;;6.59;100.00;99071.56;5111129;28;20289;-69
2022/04/19 02:57:07;;;;;;;2.10;2.00;;;;;;;6.60;100.00;99073.22;5110318;28;20301;-70
2022/04/19 02:59:35;;;;;;;2.20;2.10;;;;;;;6.59;100.00;99072.38;5110160;28;20285;-70
2022/04/19 03:02:02;;;;;;;2.70;2.60;;;;;;;6.58;100.00;99070.72;5110785;28;20723;-69
2022/04/19 03:04:29;;;;;;;2.20;2.17;;;;;;;6.58;100.00;99080.06;5111221;28;20211;-69
2022/04/19 03:06:57;;;;;;;2.03;1.93;;;;;;;6.47;100.00;99062.44;5111448;28;20219;-68
2022/04/19 03:09:24;;;;;;;2.53;2.43;;;;;;;6.53;100.00;99071.66;5111113;28;20286;-69
2022/04/19 03:11:51;;;;;;;2.40;2.30;;;;;;;6.47;100.00;99061.59;5111776;28;20290;-69
2022/04/19 03:14:18;;;;;;;2.07;1.97;;;;;;;6.52;100.00;99068.31;5107874;28;20282;-69
2022/04/19 03:16:44;;;;;;;2.47;2.37;;;;;;;6.53;100.00;99079.28;5109024;28;20213;-69
2022/04/19 03:19:13;;;;;;;2.17;2.13;;;;;;;6.55;100.00;99077.59;5109342;28;20198;-65
2022/04/19 03:21:40;;;;;;;2.30;2.20;;;;;;;6.55;100.00;99085.22;5109434;28;20194;-66
2022/04/19 03:29:38;;;;;;;2.10;2.00;;;;;;;6.59;100.00;99089.41;5109552;28;20244;-65
2022/04/19 03:32:07;;;;;;;1.93;1.83;;;;;;;6.54;100.00;99083.53;5111456;28;20214;-65
2022/04/19 03:34:34;;;;;;;2.03;1.93;;;;;;;6.53;100.00;99084.38;5111522;28;20596;-65
2022/04/19 03:37:01;;;;;;;2.23;2.13;;;;;;;6.56;100.00;99086.91;5111615;28;20289;-66
2022/04/19 03:39:30;;;;;;;2.47;2.37;;;;;;;6.52;100.00;99077.66;5108277;28;20590;-65
2022/04/19 03:41:58;;;;;;;2.43;2.33;;;;;;;6.50;100.00;99070.03;5110945;28;20277;-65
2022/04/19 03:44:25;;;;;;;2.07;1.97;;;;;;;6.56;100.00;99087.72;5111115;28;20282;-65
2022/04/19 03:47:10;;;;;;;2.23;2.13;;;;;;;6.60;100.00;99079.16;5111315;28;20697;-66
2022/04/19 03:49:38;;;;;;;1.90;1.80;;;;;;;6.61;100.00;99082.56;5111214;28;20731;-65
2022/04/19 03:52:06;;;;;;;2.17;2.07;;;;;;;6.60;100.00;99083.41;5110960;28;20191;-65
2022/04/19 03:54:35;;;;;;;2.33;2.23;;;;;;;6.59;100.00;99087.66;5110390;28;20195;-65
2022/04/19 03:57:04;;;;;;;2.00;1.90;;;;;;;6.52;100.00;99081.03;5111239;28;20289;-65
2022/04/19 03:59:31;;;;;;;2.10;2.00;;;;;;;6.52;100.00;99080.19;5109661;28;20194;-65
2022/04/19 04:01:58;;;;;;;2.20;2.10;;;;;;;6.54;100.00;99083.53;5110947;28;20286;-65
2022/04/19 04:04:26;;;;;;;2.10;2.00;;;;;;;6.58;100.00;99087.72;5110509;28;20286;-65
2022/04/19 04:06:53;;;;;;;2.37;2.27;;;;;;;6.53;100.00;99081.84;5110956;28;20206;-65
2022/04/19 04:09:20;;;;;;;2.10;2.00;;;;;;;6.60;100.00;99094.44;5110615;28;20220;-65
2022/04/19 04:11:48;;;;;;;2.77;2.67;;;;;;;6.61;100.00;99093.59;5110485;28;20286;-65
2022/04/19 04:14:15;;;;;;;2.30;2.20;;;;;;;6.62;100.00;99097.81;5111216;28;20282;-65
2022/04/19 04:16:42;;;;;;;2.10;2.00;;;;;;;6.61;100.00;99102.94;5110484;28;20285;-66
2022/04/19 04:19:09;;;;;;;1.83;1.83;;;;;;;6.61;100.00;99105.47;5110770;28;20193;-65
2022/04/19 04:21:36;;;;;;;1.80;1.70;;;;;;;6.62;100.00;99102.06;5110144;28;20244;-65
2022/04/19 04:24:04;;;;;;;2.10;2.00;;;;;;;6.65;100.00;99107.09;5110010;28;20203;-66
2022/04/19 04:26:31;;;;;;;2.13;2.03;;;;;;;6.67;100.00;99116.38;5110686;28;20195;-65
2022/04/19 04:28:59;;;;;;;2.40;2.30;;;;;;;6.72;100.00;99121.41;5110673;28;20222;-65
2022/04/19 04:31:26;;;;;;;2.53;2.43;;;;;;;6.73;100.00;99126.44;5110933;28;20202;-66
2022/04/19 04:33:53;;;;;;;1.93;1.83;;;;;;;6.72;100.00;99123.97;5110676;28;20194;-65
2022/04/19 04:36:20;;;;;;;2.00;1.90;;;;;;;6.74;100.00;99122.22;5110782;28;20698;-65
2022/04/19 04:38:47;;;;;;;2.47;2.37;;;;;;;6.71;100.00;99112.06;5110569;28;20727;-65
2022/04/19 04:41:14;;;;;;;2.07;1.97;;;;;;;6.76;100.00;99125.53;5110767;28;20210;-65
2022/04/19 04:43:41;;;;;;;1.47;1.47;;;;;;;6.79;100.00;99130.59;5110393;28;20739;-65
2022/04/19 04:51:38;;;;;;;1.80;1.70;;;;;;;6.80;100.00;99138.22;5110263;28;20202;-65
2022/04/19 04:54:05;;;;;;;2.80;2.70;;;;;;;6.83;100.00;99143.25;5110383;28;20281;-65
2022/04/19 04:56:32;;;;;;;2.23;2.03;;;;;;;6.84;100.00;99133.91;5108568;28;20332;-66
2022/04/19 04:58:59;;;;;;;3.10;2.13;;;;;;;6.87;100.00;99138.94;5110092;28;20281;-66
2022/04/19 05:01:27;;;;;;;3.13;2.93;;;;;;;6.88;100.00;99146.53;5110449;28;20735;-66
2022/04/19 05:03:54;;;;;;;8.07;5.27;;;;;;;6.86;100.00;99142.34;5110240;28;20201;-65
2022/04/19 05:06:21;;;;;;;4.70;4.30;;;;;;;6.84;100.00;99144.09;5111851;28;20194;-65
2022/04/19 05:08:48;;;;;;;3.40;3.20;;;;;;;6.80;100.00;99143.31;5113879;28;20723;-66
2022/04/19 05:11:15;;;;;;;3.77;3.57;;;;;;;6.75;100.00;99131.53;5113257;28;20206;-65
2022/04/19 05:13:42;;;;;;;2.40;2.30;;;;;;;6.75;100.00;99144.28;5114045;28;20191;-65
2022/04/19 05:16:09;;;;;;;2.00;1.90;;;;;;;6.72;100.00;99136.69;5113400;28;20290;-65
2022/04/19 05:18:37;;;;;;;2.33;2.23;;;;;;;6.79;100.00;99140.78;5113731;28;20202;-66
2022/04/19 05:21:05;;;;;;;2.27;2.17;;;;;;;6.81;100.00;99139.91;5112987;28;20206;-65
2022/04/19 05:23:32;;;;;;;2.33;2.23;;;;;;;6.78;100.00;99139.13;5112892;28;20667;-66
2022/04/19 05:25:59;;;;;;;1.73;1.73;;;;;;;6.76;100.00;99145.94;5110953;28;20277;-61
2022/04/19 05:28:26;;;;;;;2.40;2.30;;;;;;;6.54;100.00;99114.09;5112658;28;20316;-61
2022/04/19 05:30:53;;;;;;;2.03;1.93;;;;;;;6.69;100.00;99139.25;5111327;28;20281;-63
2022/04/19 05:33:20;;;;;;;1.57;1.50;;;;;;;6.69;100.00;99144.34;5112378;28;20198;-66
2022/04/19 05:35:48;;;;;;;1.40;1.40;;;;;;;6.65;100.00;99138.50;5112674;28;20711;-65
2022/04/19 05:38:15;;;;;;;1.57;1.50;;;;;;;6.66;100.00;99149.50;5112461;28;20666;-64
2022/04/19 05:40:43;;;;;;;1.83;1.80;;;;;;;6.65;100.00;99147.84;5112290;28;20348;-66
2022/04/19 05:43:10;;;;;;;1.83;1.73;;;;;;;6.56;100.00;99153.13;5112721;28;20270;-64
2022/04/19 05:45:38;;;;;;;1.30;1.30;;;;;;;6.56;100.00;99156.47;5112391;28;20285;-65
2022/04/19 05:48:06;;;;;;;1.70;1.70;;;;;;;6.57;100.00;99159.88;5111452;28;20277;-65
2022/04/19 05:50:33;;;;;;;1.60;1.47;;;;;;;6.74;100.00;99152.78;5112941;28;20194;-65
2022/04/19 05:53:01;;;;;;;2.43;2.33;;;;;;;6.85;100.00;99155.94;5112207;28;20218;-64
2022/04/19 05:55:28;;;;;;;2.27;1.70;;;;;;;6.91;100.00;99155.84;5110818;28;20213;-65
2022/04/19 05:57:55;;;;;;;2.00;1.90;;;;;;;7.00;100.00;99155.66;5112438;28;20207;-65
2022/04/19 06:00:21;;;;;;;1.83;1.80;;;;;;;7.12;100.00;99159.66;5112196;28;20291;-65
2022/04/19 06:05:33;;;;;;;1.50;1.50;;;;;;;7.18;100.00;99173.13;5112428;28;20251;-65
2022/04/19 06:08:02;;;;;;;1.67;1.67;;;;;;;7.25;100.00;99167.03;5111763;28;20263;-65
2022/04/19 06:10:29;;;;;;;1.73;1.63;;;;;;;7.24;100.00;99170.44;5112403;28;20191;-65
2022/04/19 06:12:56;;;;;;;1.63;1.63;;;;;;;7.21;100.00;99182.41;5111723;28;20836;-64
2022/04/19 06:15:23;;;;;;;1.30;1.30;;;;;;;7.26;100.00;99178.09;5112069;28;20205;-65
2022/04/19 06:17:50;;;;;;;2.40;1.87;;;;;;;7.24;100.00;99188.28;5111586;28;20197;-64
2022/04/19 06:20:16;;;;;;;1.63;1.63;;;;;;;7.29;100.00;99178.03;5112253;28;20190;-66
2022/04/19 06:22:44;;;;;;;4.10;2.00;;;;;;;7.37;100.00;99179.53;5112985;28;20616;-65
2022/04/19 06:25:13;;;;;;;1.70;1.60;;;;;;;7.42;100.00;99178.59;5112388;28;20608;-66
2022/04/19 06:27:40;;;;;;;1.80;1.70;;;;;;;7.43;100.00;99178.59;5112367;28;20268;-66
2022/04/19 06:30:08;;;;;;;1.30;1.30;;;;;;;7.45;100.00;99183.63;5112132;28;20275;-65
2022/04/19 06:32:36;;;;;;;2.30;2.20;;;;;;;7.48;100.00;99188.66;5112425;28;20251;-65
2022/04/19 06:35:03;;;;;;;1.50;1.50;;;;;;;7.55;100.00;99185.13;5110935;28;20251;-65
2022/04/19 06:37:30;;;;;;;1.43;1.43;;;;;;;7.64;100.00;99187.47;5112368;28;20323;-65
2022/04/19 06:40:01;;;;;;;2.30;2.10;;;;;;;7.73;100.00;99194.91;5111254;28;20258;-66
2022/04/19 06:42:29;;;;;;;1.80;1.70;;;;;;;7.83;100.00;99191.28;5109975;28;20560;-65
2022/04/19 06:44:56;;;;;;;1.40;1.40;;;;;;;7.94;100.00;99189.34;5110494;28;20280;-65
2022/04/19 06:47:24;;;;;;;1.50;1.50;;;;;;;7.89;100.00;99186.88;5109831;28;20665;-66
2022/04/19 06:49:51;;;;;;;2.10;2.00;;;;;;;7.94;100.00;99194.44;5110726;28;20805;-65
2022/04/19 06:52:18;;;;;;;1.97;1.83;;;;;;;7.84;100.00;99198.94;5105179;28;20199;-65
2022/04/19 06:54:45;;;;;;;2.63;2.43;;;;;;;7.85;100.00;99207.44;5110767;28;20586;-66
2022/04/19 06:57:12;;;;;;;2.40;2.30;;;;;;;7.89;100.00;99209.00;5111111;28;20195;-65
2022/04/19 06:59:40;;;;;;;2.57;2.37;;;;;;;7.89;100.00;99203.91;5112052;28;20205;-66
2022/04/19 07:02:07;;;;;;;1.77;1.77;;;;;;;7.90;100.00;99208.16;5111379;28;20290;-65
2022/04/19 07:04:34;;;;;;;4.30;1.73;;;;;;;7.93;100.00;99202.97;5111632;28;20203;-66
2022/04/19 07:07:02;;;;;;;2.10;2.00;;;;;;;7.92;100.00;99211.50;5109675;28;20195;-65
2022/04/19 07:09:29;;;;;;;2.97;2.23;;;;;;;7.86;100.00;99206.53;5109931;28;20589;-66
2022/04/19 07:11:56;;;;;;;2.50;2.40;;;;;;;7.83;100.00;99211.69;5110244;28;20207;-66
2022/04/19 07:14:23;;;;;;;2.33;2.27;;;;;;;7.86;100.00;99207.38;5110597;28;20201;-65
2022/04/19 07:16:52;;;;;;;1.77;1.77;;;;;;;7.79;100.00;99210.94;5109812;28;20281;-65
2022/04/19 07:19:18;;;;;;;1.97;1.93;;;;;;;7.85;100.00;99209.97;5109714;27;20950;-66
2022/04/19 07:27:14;;;;;;;2.47;2.03;;;;;;;8.01;100.00;99206.22;5109776;28;20212;-66
2022/04/19 07:29:41;;;;;;;1.90;1.90;;;;;;;7.96;100.00;99210.56;5109386;28;20214;-66
2022/04/19 07:32:10;;;;;;;2.47;2.37;;;;;;;8.01;100.00;99216.41;5110122;28;20203;-66
2022/04/19 07:34:36;;;;;;;2.60;1.93;;;;;;;8.04;99.73;99213.78;5110113;28;20722;-66
2022/04/19 07:37:04;;;;;;;2.13;2.10;;;;;;;8.08;100.00;99215.38;5109962;28;20281;-66
2022/04/19 07:39:31;;;;;;;2.10;2.00;;;;;;;8.07;99.43;99221.38;5109428;28;20218;-65
2022/04/19 07:42:00;;;;;;;1.70;1.70;;;;;;;8.01;99.27;99220.69;5109412;28;20199;-66
2022/04/19 07:44:29;;;;;;;2.50;2.40;;;;;;;7.85;100.00;99200.59;5110224;28;20217;-66
2022/04/19 07:46:56;;;;;;;2.67;2.57;;;;;;;7.99;100.00;99218.16;5110149;28;20682;-66
2022/04/19 07:49:24;;;;;;;2.47;2.37;;;;;;;8.04;100.00;99216.34;5107389;28;20226;-66
2022/04/19 07:51:51;;;;;;;2.30;2.20;;;;;;;8.06;100.00;99219.69;5109425;28;20267;-66
2022/04/19 07:54:18;;;;;;;2.57;2.47;;;;;;;8.09;100.00;99219.63;5110791;28;20278;-66
2022/04/19 07:56:45;;;;;;;2.50;2.40;;;;;;;8.11;100.00;99212.75;5110910;28;20199;-65
2022/04/19 07:59:12;;;;;;;2.30;2.20;;;;;;;8.19;100.00;99220.25;5110598;28;20203;-66
2022/04/19 08:01:39;;;;;;;2.00;2.00;;;;;;;8.23;100.00;99217.59;5110975;28;20733;-66
2022/04/19 08:04:07;;;;;;;1.90;1.90;;;;;;;8.19;100.00;99228.75;5108669;28;20210;-65
2022/04/19 08:06:35;;;;;;;1.93;1.83;;;;;;;8.09;98.48;99227.28;5106744;28;20282;-65
2022/04/19 08:09:02;;;;;;;1.93;1.83;;;;;;;8.07;97.71;99221.38;5110131;28;20667;-65
2022/04/19 08:11:29;;;;;;;2.33;2.23;;;;;;;8.25;100.00;99220.94;5110395;28;20290;-66
2022/04/19 08:13:56;;;;;;;2.60;2.50;;;;;;;8.43;100.00;99224.81;5110766;28;20206;-66
2022/04/19 08:16:23;;;;;;;2.03;2.00;;;;;;;8.62;100.00;99210.72;5109991;28;20199;-65
2022/04/19 08:18:50;;;;;;;2.73;2.63;;;;;;;8.90;100.00;99221.03;5110065;28;20206;-66
2022/04/19 08:21:17;;;;;;;3.00;2.90;;;;;;;9.18;99.73;99221.13;5109830;28;20202;-66
2022/04/19 08:23:45;;;;;;;2.10;2.10;;;;;;;9.48;100.00;99218.56;5107733;28;20278;-66
2022/04/19 08:26:12;;;;;;;2.13;2.03;;;;;;;9.60;95.38;99221.63;5110733;28;20199;-67
2022/04/19 08:28:39;;;;;;;2.50;2.40;;;;;;;9.93;100.00;99212.97;5110743;28;20293;-66
2022/04/19 08:31:06;;;;;;;2.33;2.33;;;;;;;9.96;90.86;99225.69;5110703;28;20195;-65
2022/04/19 08:33:33;;;;;;;10.63;6.70;;;;;;;10.04;89.47;99226.28;5110395;28;20293;-66
2022/04/19 08:36:00;;;;;;;2.23;2.13;;;;;;;10.09;97.66;99216.72;5110506;28;20259;-66
2022/04/19 08:38:28;;;;;;;2.00;2.00;;;;;;;10.07;94.41;99213.41;5110254;28;20202;-66
2022/04/19 08:40:56;;;;;;;1.90;1.83;;;;;;;10.08;99.15;99222.72;5112827;28;20194;-66
2022/04/19 08:43:23;;;;;;;2.10;2.00;;;;;;;10.10;100.00;99205.63;5112451;28;20230;-66
2022/04/19 08:45:50;;;;;;;2.10;2.00;;;;;;;10.15;93.88;99206.31;5114137;28;20577;-66
2022/04/19 08:48:19;;;;;;;1.90;1.80;;;;;;;10.36;97.29;99208.22;5110403;28;20264;-66
2022/04/19 08:50:49;;;;;;;1.90;1.80;;;;;;;10.59;91.47;99211.75;5113964;28;20218;-66
2022/04/19 08:58:46;;;;;;;2.40;2.30;;;;;;;10.58;89.02;99207.50;5112740;28;20243;-67
2022/04/19 09:01:13;;;;;;;2.40;2.30;;;;;;;10.52;90.89;99208.56;5114330;28;20233;-67
2022/04/19 09:03:41;;;;;;;2.43;2.33;;;;;;;10.49;95.04;99204.38;5114574;28;20645;-66
2022/04/19 09:06:08;;;;;;;2.90;2.70;;;;;;;10.60;100.00;99180.94;5114597;28;20612;-67
2022/04/19 09:08:35;;;;;;;3.07;2.57;;;;;;;10.84;91.20;99204.91;5114430;28;20199;-67
2022/04/19 09:11:08;;;;;;;1.80;1.70;;;;;;;10.59;89.40;99204.06;5113929;28;20765;-67
2022/04/19 09:13:36;;;;;;;2.03;1.93;;;;;;;10.65;88.81;99204.69;5114099;28;20228;-67
2022/04/19 09:16:08;;;;;;;2.00;1.90;;;;;;;10.50;82.34;99212.91;5113739;28;20624;-67
2022/04/19 09:18:37;;;;;;;2.17;2.07;;;;;;;10.51;84.89;99207.72;5113752;28;20206;-67
2022/04/19 09:21:05;;;;;;;2.10;1.93;;;;;;;10.61;86.29;99215.09;5111846;28;20183;-67
2022/04/19 09:23:33;;;;;;;1.63;1.63;;;;;;;10.58;84.92;99216.03;5112600;28;20195;-67
2022/04/19 09:26:01;;;;;;;2.07;1.97;;;;;;;10.58;85.38;99207.50;5112773;28;20195;-67
2022/04/19 09:28:31;;;;;;;2.60;2.50;;;;;;;10.59;89.88;99201.50;5113020;28;20282;-67
2022/04/19 09:31:00;;;;;;;2.03;1.93;;;;;;;10.51;90.32;99200.03;5112817;28;20206;-67
2022/04/19 09:33:28;;;;;;;1.90;1.80;;;;;;;10.57;90.50;99195.56;5113425;28;20202;-66
2022/04/19 09:35:56;;;;;;;2.20;2.10;;;;;;;10.62;88.08;99178.31;5113407;28;20264;-67
2022/04/19 09:38:37;;;;;;;2.10;2.00;;;;;;;11.04;86.45;99207.63;5112683;28;20210;-66
2022/04/19 09:41:04;;;;;;;2.60;2.50;;;;;;;11.26;89.74;99195.72;5110642;28;20195;-66
2022/04/19 09:43:33;;;;;;;2.97;2.87;;;;;;;11.20;87.85;99172.00;5112284;28;20203;-66
2022/04/19 09:46:03;;;;;;;2.90;2.30;;;;;;;11.38;86.64;99192.69;5110600;28;20515;-63
2022/04/19 09:48:31;;;;;;;2.40;2.30;;;;;;;11.77;89.36;99190.38;5113850;28;20198;-63
2022/04/19 09:51:02;;;;;;;3.03;2.93;;;;;;;11.85;84.59;99202.94;5113298;28;20881;-63
2022/04/19 09:53:31;;;;;;;2.40;2.30;;;;;;;11.80;83.28;99200.53;5113075;28;20190;-64
2022/04/19 09:56:00;;;;;;;2.30;2.10;;;;;;;11.79;81.90;99193.75;5113474;28;20286;-63
2022/04/19 09:58:28;;;;;;;2.47;2.37;;;;;;;11.79;83.47;99190.34;5113336;28;20198;-64
2022/04/19 10:00:57;;;;;;;2.20;2.10;;;;;;;11.75;84.46;99191.34;5113444;28;20195;-64
2022/04/19 10:09:05;;;;;;;2.13;2.03;;;;;;;11.61;82.05;99189.25;5113115;28;20230;-63
2022/04/19 10:11:33;;;;;;;1.87;1.77;;;;;;;11.75;80.10;99186.22;5112891;28;20199;-64
2022/04/19 10:14:00;;;;;;;1.90;1.90;;;;;;;11.59;78.86;99191.91;5112836;28;20233;-65
2022/04/19 10:16:31;;;;;;;1.80;1.70;;;;;;;11.62;77.82;99172.13;5112772;27;20245;-63
2022/04/19 10:18:59;;;;;;;2.50;2.40;;;;;;;11.45;78.10;99186.44;5112996;28;20191;-63
2022/04/19 10:21:31;;;;;;;1.87;1.87;;;;;;;11.74;77.96;99184.53;5112761;27;20190;-63
2022/04/19 10:24:12;;;;;;;1.73;1.73;;;;;;;12.09;86.27;99166.00;5113003;28;20203;-63
2022/04/19 10:26:46;;;;;;;2.07;1.97;;;;;;;12.37;85.81;99169.16;5112668;28;20194;-63
2022/04/19 10:29:17;;;;;;;2.67;2.53;;;;;;;12.56;77.80;99171.78;5112958;28;20203;-63
2022/04/19 10:31:55;;;;;;;1.67;1.67;;;;;;;12.67;75.78;99164.44;5112845;28;20776;-64
2022/04/19 10:34:25;;;;;;;1.77;1.77;;;;;;;12.85;79.44;99168.00;5112615;28;20198;-63
2022/04/19 10:36:54;;;;;;;1.97;1.90;;;;;;;12.85;74.09;99173.97;5112263;28;20263;-64
2022/04/19 10:39:31;;;;;;;1.80;1.80;;;;;;;13.10;79.61;99163.47;5112312;28;20233;-63
2022/04/19 10:42:00;;;;;;;1.63;1.63;;;;;;;13.27;77.71;99155.84;5111744;28;20267;-64
2022/04/19 10:44:29;;;;;;;1.60;1.60;;;;;;;13.45;74.95;99160.16;5112158;28;20636;-64
2022/04/19 10:47:23;;;;;;;1.90;1.90;;;;;;;13.72;80.36;99157.22;5112598;28;20734;-63
2022/04/19 10:49:58;;;;;;;2.30;2.20;;;;;;;13.94;78.16;99158.72;5098060;28;20261;-64
2022/04/19 10:52:47;;;;;;;1.97;1.87;;;;;;;13.57;73.21;99169.06;5112358;28;20289;-64
2022/04/19 10:55:19;;;;;;;2.27;2.00;;;;;;;13.72;77.04;99146.91;5112331;28;20264;-64
2022/04/19 11:00:38;;;;;;;2.60;2.50;;;;;;;13.19;72.13;99157.91;5099159;28;20426;-66
2022/04/19 11:03:07;;;;;;;2.03;1.93;;;;;;;13.42;70.72;99159.44;5110269;28;20294;-65
2022/04/19 11:05:41;;;;;;;1.90;1.90;;;;;;;13.36;69.62;99160.56;5110193;28;20302;-65
2022/04/19 11:08:32;;;;;;;2.30;2.20;;;;;;;13.44;69.77;99158.47;5110751;28;20195;-65
2022/04/19 11:11:23;;;;;;;2.43;2.33;;;;;;;13.31;70.94;99157.34;5108269;28;20215;-66
2022/04/19 11:14:21;;;;;;;2.40;2.30;;;;;;;13.34;71.26;99159.81;5110553;28;20678;-65
2022/04/19 11:16:51;;;;;;;2.63;2.53;;;;;;;13.33;69.43;99163.28;5110554;28;20574;-65
2022/04/19 11:19:21;;;;;;;1.57;1.57;;;;;;;13.34;68.01;99158.97;5110512;28;20198;-67
2022/04/19 11:21:58;;;;;;;1.40;1.40;;;;;;;13.39;69.23;99152.72;5110540;28;20574;-66
2022/04/19 11:24:59;;;;;;;1.30;1.30;;;;;;;13.62;69.28;99152.50;5110175;28;20267;-64
2022/04/19 11:28:05;;;;;;;1.47;1.47;;;;;;;13.44;66.59;99158.47;5105684;28;20201;-63
2022/04/19 11:30:32;;;;;;;1.93;1.93;;;;;;;13.64;67.84;99155.81;5106915;28;20214;-65
2022/04/19 11:33:00;;;;;;;1.70;1.70;;;;;;;13.82;73.89;99158.47;5107724;28;20871;-62
2022/04/19 11:35:32;;;;;;;1.60;1.60;;;;;;;13.79;64.67;99168.91;5107916;28;20199;-66
2022/04/19 11:38:03;;;;;;;2.00;1.90;;;;;;;13.81;67.92;99157.63;5108771;28;20210;-67
2022/04/19 11:48:48;;;;;;;2.87;2.00;;;;;;;13.82;66.72;99158.47;5108566;28;20251;-66
2022/04/19 11:51:18;;;;;;;1.90;1.90;;;;;;;13.79;64.96;99174.06;5104745;28;20705;-65
2022/04/19 11:53:46;;;;;;;1.80;1.80;;;;;;;13.67;66.58;99160.00;5105151;28;20600;-66
2022/04/19 11:56:13;;;;;;;2.00;1.97;;;;;;;13.28;63.67;99172.94;5106450;28;20294;-65
2022/04/19 11:58:43;;;;;;;2.53;2.43;;;;;;;13.41;63.58;99174.06;5110463;28;20586;-63
2022/04/19 12:01:10;;;;;;;2.87;2.67;;;;;;;13.45;65.55;99183.31;5107025;28;20294;-66
2022/04/19 12:03:39;;;;;;;1.60;1.50;;;;;;;13.37;68.41;99203.44;5110820;28;20685;-65
2022/04/19 12:06:08;;;;;;;1.77;1.13;;;;;;;12.44;76.61;99201.41;5110548;28;20205;-66
2022/04/19 12:08:38;;;;;;;4.33;1.03;;;;;;;11.88;79.91;99193.41;5106669;28;20195;-65
2022/04/19 12:11:07;;;;;;;1.20;1.20;;;;;;;10.91;85.36;99189.25;5110252;28;20241;-67
2022/04/19 12:13:35;;;;;;;1.20;1.20;;;;;;;10.40;89.39;99191.84;5109412;28;20194;-64
2022/04/19 12:16:03;;;;;;;1.30;1.13;;;;;;;10.02;94.46;99195.59;5111958;28;20228;-66
2022/04/19 12:18:35;;;;;;;1.20;1.20;;;;;;;9.83;98.86;99197.06;5113296;28;20213;-67
2022/04/19 12:21:04;;;;;;;1.10;1.10;;;;;;;9.41;98.32;99201.72;5112932;28;20202;-66
2022/04/19 12:23:31;;;;;;;1.40;1.30;;;;;;;9.36;100.00;99203.59;5111334;28;20202;-64